createdAt,value
2022-12-04T00:01:11.891Z,55.92
2022-12-04T00:03:39.659Z,61.75
2022-12-04T00:06:07.791Z,64.15
2022-12-04T00:08:35.334Z,62.38
2022-12-04T00:11:05.016Z,70.50
2022-12-04T00:13:33.330Z,72.85
2022-12-04T00:16:00.731Z,67.22
2022-12-04T00:18:28.327Z,63.15
2022-12-04T00:20:55.477Z,65.90
2022-12-04T00:23:22.771Z,63.90
2022-12-04T00:25:49.971Z,66.68
2022-12-04T00:28:18.736Z,69.65
2022-12-04T00:30:46.786Z,64.80
2022-12-04T00:33:14.320Z,71.75
2022-12-04T00:35:41.736Z,65.47
2022-12-04T00:38:08.857Z,67.45
2022-12-04T00:40:35.921Z,66.82
2022-12-04T00:43:03.884Z,63.58
2022-12-04T00:45:31.059Z,62.13
2022-12-04T00:47:58.140Z,65.57
2022-12-04T00:50:25.270Z,63.03
2022-12-04T00:52:52.386Z,65.25
2022-12-04T00:55:19.460Z,66.32
2022-12-04T00:57:46.805Z,64.47
2022-12-04T01:00:14.149Z,66.33
2022-12-04T01:02:41.376Z,64.82
2022-12-04T01:05:08.998Z,66.75
2022-12-04T01:07:36.688Z,63.88
2022-12-04T01:10:08.382Z,68.60
2022-12-04T01:12:36.822Z,68.77
2022-12-04T01:15:05.244Z,67.13
2022-12-04T01:17:32.329Z,70.05
2022-12-04T01:19:59.446Z,64.03
2022-12-04T01:22:26.560Z,64.10
2022-12-04T01:24:57.014Z,66.13
2022-12-04T01:27:24.382Z,64.10
2022-12-04T01:29:51.492Z,60.88
2022-12-04T01:32:18.607Z,68.72
2022-12-04T01:34:45.678Z,67.78
2022-12-04T01:37:12.793Z,65.07
2022-12-04T01:39:39.906Z,67.70
2022-12-04T01:42:07.084Z,68.65
2022-12-04T01:44:34.215Z,63.28
2022-12-04T01:47:01.888Z,67.45
2022-12-04T01:49:44.361Z,67.60
2022-12-04T01:52:24.551Z,64.78
2022-12-04T01:55:00.185Z,65.45
2022-12-04T01:57:31.837Z,65.07
2022-12-04T02:00:17.395Z,65.63
2022-12-04T02:02:47.509Z,67.97
2022-12-04T02:05:19.667Z,63.25
2022-12-04T02:07:50.290Z,65.38
2022-12-04T02:10:24.515Z,69.07
2022-12-04T02:13:13.469Z,66.13
2022-12-04T02:16:12.272Z,68.00
2022-12-04T02:19:06.588Z,69.85
2022-12-04T02:21:39.347Z,72.78
2022-12-04T02:24:53.276Z,68.55
2022-12-04T02:27:41.617Z,69.05
2022-12-04T02:30:16.047Z,67.87
2022-12-04T02:33:08.243Z,71.90
2022-12-04T02:35:44.710Z,73.68
2022-12-04T02:38:27.299Z,67.00
2022-12-04T02:41:01.208Z,70.35
2022-12-04T02:43:43.949Z,69.83
2022-12-04T02:46:17.576Z,70.30
2022-12-04T02:48:49.887Z,69.75
2022-12-04T02:51:20.680Z,66.63
2022-12-04T02:53:57.321Z,67.65
2022-12-04T02:56:30.132Z,64.73
2022-12-04T02:59:07.139Z,61.92
2022-12-04T03:01:40.650Z,73.75
2022-12-04T03:04:21.000Z,66.43
2022-12-04T03:06:59.861Z,71.18
2022-12-04T03:09:42.764Z,64.93
2022-12-04T03:12:21.903Z,65.97
2022-12-04T03:15:03.743Z,69.18
2022-12-04T03:17:37.655Z,69.80
2022-12-04T03:20:12.124Z,69.90
2022-12-04T03:22:44.063Z,71.57
2022-12-04T03:25:11.628Z,69.15
2022-12-04T03:28:07.498Z,67.93
2022-12-04T03:30:47.060Z,69.38
2022-12-04T03:33:20.258Z,69.63
2022-12-04T03:35:58.145Z,68.17
2022-12-04T03:38:44.554Z,66.97
2022-12-04T03:41:59.758Z,68.97
2022-12-04T03:44:41.706Z,67.88
2022-12-04T03:47:26.321Z,64.50
2022-12-04T03:50:09.761Z,67.43
2022-12-04T03:53:25.063Z,64.22
2022-12-04T03:56:11.538Z,66.15
2022-12-04T03:58:49.710Z,69.13
2022-12-04T04:01:23.222Z,68.60
2022-12-04T04:03:54.906Z,66.40
2022-12-04T04:06:32.723Z,66.03
2022-12-04T04:09:07.495Z,66.80
2022-12-04T04:11:47.967Z,67.57
2022-12-04T04:14:49.807Z,68.40
2022-12-04T04:17:40.947Z,66.70
2022-12-04T04:20:39.634Z,73.82
2022-12-04T04:23:28.283Z,75.22
2022-12-04T04:25:58.513Z,64.72
2022-12-04T04:28:42.174Z,75.20
2022-12-04T04:31:24.554Z,73.43
2022-12-04T04:34:20.045Z,76.00
2022-12-04T04:37:08.960Z,73.95
2022-12-04T04:39:57.259Z,65.70
2022-12-04T04:42:38.358Z,71.10
2022-12-04T04:45:15.762Z,70.67
2022-12-04T04:48:03.005Z,69.13
2022-12-04T04:50:31.856Z,69.38
2022-12-04T04:53:05.378Z,72.38
2022-12-04T04:55:34.629Z,71.90
2022-12-04T04:58:15.420Z,70.50
2022-12-04T05:00:57.034Z,69.03
2022-12-04T05:03:24.817Z,65.57
2022-12-04T05:05:52.111Z,64.45
2022-12-04T05:08:19.257Z,71.93
2022-12-04T05:10:46.452Z,73.17
2022-12-04T05:13:14.602Z,68.15
2022-12-04T05:15:42.248Z,72.53
2022-12-04T05:18:09.469Z,70.38
2022-12-04T05:20:40.575Z,69.97
2022-12-04T05:23:07.672Z,72.13
2022-12-04T05:25:34.770Z,78.30
2022-12-04T05:28:01.831Z,66.15
2022-12-04T05:30:28.949Z,68.72
2022-12-04T05:32:56.096Z,72.53
2022-12-04T05:35:23.212Z,72.17
2022-12-04T05:37:50.267Z,74.40
2022-12-04T05:40:17.428Z,67.65
2022-12-04T05:42:44.555Z,68.35
2022-12-04T05:45:11.710Z,68.85
2022-12-04T05:47:40.863Z,63.37
2022-12-04T05:50:10.846Z,68.70
2022-12-04T05:52:38.119Z,72.63
2022-12-04T05:55:07.136Z,69.32
2022-12-04T05:57:34.258Z,66.00
2022-12-04T06:00:01.333Z,67.67
2022-12-04T06:02:28.712Z,65.57
2022-12-04T06:04:55.805Z,72.10
2022-12-04T06:07:22.885Z,67.05
2022-12-04T06:09:49.938Z,66.72
2022-12-04T06:12:17.070Z,66.87
2022-12-04T06:14:44.188Z,63.15
2022-12-04T06:17:11.252Z,66.55
2022-12-04T06:19:38.357Z,64.10
2022-12-04T06:22:05.441Z,64.97
2022-12-04T06:24:32.528Z,65.60
2022-12-04T06:29:47.928Z,69.22
2022-12-04T06:32:19.717Z,70.20
2022-12-04T06:34:53.430Z,67.80
2022-12-04T06:37:23.337Z,63.70
2022-12-04T06:39:50.684Z,62.00
2022-12-04T06:42:17.758Z,71.03
2022-12-04T06:44:44.943Z,63.80
2022-12-04T06:47:12.157Z,69.85
2022-12-04T06:49:39.353Z,67.13
2022-12-04T06:52:06.414Z,70.35
2022-12-04T06:54:33.528Z,66.85
2022-12-04T06:57:00.590Z,68.15
2022-12-04T06:59:27.962Z,63.65
2022-12-04T07:01:55.103Z,66.33
2022-12-04T07:04:23.286Z,67.72
2022-12-04T07:06:50.410Z,64.03
2022-12-04T07:09:18.455Z,64.13
2022-12-04T07:11:46.082Z,64.45
2022-12-04T07:14:13.864Z,74.10
2022-12-04T07:16:42.569Z,61.80
2022-12-04T07:19:12.737Z,73.03
2022-12-04T07:21:40.506Z,63.08
2022-12-04T07:24:07.748Z,69.57
2022-12-04T07:26:34.818Z,69.20
2022-12-04T07:29:01.951Z,71.47
2022-12-04T07:31:30.276Z,66.93
2022-12-04T07:33:58.954Z,70.10
2022-12-04T07:36:26.913Z,68.85
2022-12-04T07:38:56.657Z,66.27
2022-12-04T07:41:24.494Z,66.47
2022-12-04T07:43:51.707Z,68.68
2022-12-04T07:46:26.020Z,70.80
2022-12-04T07:48:56.593Z,64.93
2022-12-04T07:51:27.454Z,70.13
2022-12-04T07:54:02.080Z,73.03
2022-12-04T07:56:30.619Z,66.30
2022-12-04T07:58:57.716Z,72.15
2022-12-04T08:01:24.979Z,68.50
2022-12-04T08:03:55.826Z,76.37
2022-12-04T08:06:25.158Z,76.63
2022-12-04T08:08:53.301Z,69.32
2022-12-04T08:11:23.807Z,70.53
2022-12-04T08:14:02.282Z,67.55
2022-12-04T08:16:32.373Z,74.23
2022-12-04T08:19:00.148Z,70.50
2022-12-04T08:21:30.098Z,67.75
2022-12-04T08:23:59.043Z,62.25
2022-12-04T08:26:28.565Z,76.22
2022-12-04T08:28:57.308Z,69.37
2022-12-04T08:31:28.140Z,74.55
2022-12-04T08:33:58.975Z,78.18
2022-12-04T08:36:27.367Z,63.22
2022-12-04T08:38:55.530Z,68.35
2022-12-04T08:41:26.073Z,66.90
2022-12-04T08:43:55.407Z,69.03
2022-12-04T08:46:24.910Z,75.28
2022-12-04T08:48:52.396Z,70.97
2022-12-04T08:51:23.958Z,61.30
2022-12-04T08:54:00.839Z,68.50
2022-12-04T08:56:30.139Z,65.25
2022-12-04T08:58:59.037Z,67.53
2022-12-04T09:01:28.017Z,61.50
2022-12-04T09:03:56.159Z,66.25
2022-12-04T09:06:24.035Z,65.27
2022-12-04T09:08:55.665Z,64.43
2022-12-04T09:11:26.391Z,65.20
2022-12-04T09:13:54.019Z,65.40
2022-12-04T09:16:24.231Z,62.63
2022-12-04T09:18:51.721Z,65.93
2022-12-04T09:21:22.790Z,70.78
2022-12-04T09:23:50.038Z,67.03
2022-12-04T09:26:28.353Z,68.22
2022-12-04T09:28:57.865Z,64.65
2022-12-04T09:31:25.742Z,62.63
2022-12-04T09:33:53.455Z,65.70
2022-12-04T09:36:21.389Z,66.72
2022-12-04T09:38:52.050Z,61.75
2022-12-04T09:41:46.812Z,59.97
2022-12-04T09:44:27.935Z,64.13
2022-12-04T09:47:04.038Z,69.22
2022-12-04T09:50:04.190Z,68.40
2022-12-04T09:53:02.672Z,66.03
2022-12-04T09:55:49.968Z,61.85
2022-12-04T09:58:36.594Z,61.47
2022-12-04T10:01:04.960Z,59.65
2022-12-04T10:03:32.409Z,63.10
2022-12-04T10:06:14.706Z,58.67
2022-12-04T10:08:45.554Z,64.18
2022-12-04T10:11:44.546Z,62.03
2022-12-04T10:14:27.986Z,54.78
2022-12-04T10:17:16.675Z,57.67
2022-12-04T10:20:08.338Z,49.97
2022-12-04T10:23:00.055Z,54.70
2022-12-04T10:25:29.409Z,56.00
2022-12-04T10:28:10.609Z,46.83
2022-12-04T10:30:41.734Z,49.53
2022-12-04T10:33:22.868Z,44.90
2022-12-04T10:35:53.087Z,44.38
2022-12-04T10:38:49.707Z,43.20
2022-12-04T10:41:37.860Z,42.78
2022-12-04T10:44:05.375Z,39.83
2022-12-04T10:46:35.469Z,41.13
2022-12-04T10:49:12.434Z,37.83
2022-12-04T10:51:42.649Z,37.77
2022-12-04T10:54:36.130Z,37.13
2022-12-04T10:57:11.321Z,36.25
2022-12-04T10:59:55.616Z,43.40
2022-12-04T11:02:38.695Z,40.30
2022-12-04T11:05:39.822Z,40.77
2022-12-04T11:08:08.143Z,44.03
2022-12-04T11:10:42.990Z,43.95
2022-12-04T11:13:13.011Z,38.40
2022-12-04T11:15:52.331Z,38.85
2022-12-04T11:18:24.483Z,39.07
2022-12-04T11:21:29.794Z,34.38
2022-12-04T11:23:58.393Z,36.65
2022-12-04T11:26:37.023Z,37.05
2022-12-04T11:29:05.409Z,35.17
2022-12-04T11:31:33.462Z,36.00
2022-12-04T11:34:09.282Z,32.67
2022-12-04T11:36:41.538Z,33.13
2022-12-04T11:39:11.795Z,44.30
2022-12-04T11:41:39.560Z,31.08
2022-12-04T11:44:18.983Z,33.03
2022-12-04T11:46:54.604Z,34.17
2022-12-04T11:49:27.723Z,32.90
2022-12-04T11:52:33.322Z,33.90
2022-12-04T11:55:40.483Z,29.98
2022-12-04T11:58:46.153Z,27.10
2022-12-04T12:01:40.847Z,31.02
2022-12-04T12:04:32.295Z,28.88
2022-12-04T12:08:09.469Z,29.33
2022-12-04T12:11:31.728Z,32.20
2022-12-04T12:14:14.578Z,28.43
2022-12-04T12:17:21.693Z,26.65
2022-12-04T12:20:04.475Z,33.42
2022-12-04T12:22:48.568Z,28.35
2022-12-04T12:25:56.964Z,28.00
2022-12-04T12:29:10.230Z,26.37
2022-12-04T12:32:13.979Z,31.60
2022-12-04T12:34:44.535Z,25.02
2022-12-04T12:37:39.970Z,23.67
2022-12-04T12:40:36.842Z,26.67
2022-12-04T12:43:23.014Z,23.80
2022-12-04T12:46:11.937Z,32.03
2022-12-04T12:49:01.749Z,28.90
2022-12-04T12:51:48.192Z,27.38
2022-12-04T12:54:39.672Z,26.35
2022-12-04T12:57:27.350Z,25.27
2022-12-04T13:00:03.484Z,27.17
2022-12-04T13:02:36.461Z,24.00
2022-12-04T13:05:11.347Z,25.42
2022-12-04T13:07:54.386Z,27.73
2022-12-04T13:10:28.695Z,28.23
2022-12-04T13:13:06.063Z,25.65
2022-12-04T13:15:50.668Z,25.85
2022-12-04T13:18:30.255Z,26.75
2022-12-04T13:21:03.562Z,30.45
2022-12-04T13:23:52.565Z,29.23
2022-12-04T13:26:25.449Z,26.20
2022-12-04T13:29:32.529Z,27.02
2022-12-04T13:32:49.981Z,31.58
2022-12-04T13:36:02.488Z,33.42
2022-12-04T13:38:58.239Z,32.57
2022-12-04T13:41:28.119Z,27.70
2022-12-04T13:43:58.973Z,30.23
2022-12-04T13:46:39.489Z,28.10
2022-12-04T13:49:25.660Z,29.00
2022-12-04T13:51:54.004Z,28.53
2022-12-04T13:54:24.956Z,31.60
2022-12-04T13:56:58.122Z,39.97
2022-12-04T13:59:28.146Z,27.30
2022-12-04T14:02:02.267Z,33.38
2022-12-04T14:04:36.361Z,33.37
2022-12-04T14:07:05.067Z,30.95
2022-12-04T14:09:44.260Z,32.28
2022-12-04T14:12:15.451Z,31.58
2022-12-04T14:14:52.877Z,32.78
2022-12-04T14:17:31.327Z,39.57
2022-12-04T14:20:08.413Z,40.33
2022-12-04T14:22:42.572Z,36.92
2022-12-04T14:25:33.252Z,37.58
2022-12-04T14:28:00.750Z,40.05
2022-12-04T14:30:39.119Z,37.17
2022-12-04T14:33:23.123Z,37.13
2022-12-04T14:36:02.404Z,40.92
2022-12-04T14:38:30.239Z,48.45
2022-12-04T14:40:58.414Z,41.33
2022-12-04T14:43:32.048Z,41.30
2022-12-04T14:46:08.003Z,40.35
2022-12-04T14:49:29.047Z,46.50
2022-12-04T14:52:13.148Z,44.72
2022-12-04T14:54:53.047Z,41.88
2022-12-04T14:57:57.663Z,45.30
2022-12-04T15:00:25.425Z,40.17
2022-12-04T15:02:57.517Z,44.25
2022-12-04T15:05:30.594Z,48.65
2022-12-04T15:08:02.728Z,42.55
2022-12-04T15:10:52.113Z,54.53
2022-12-04T15:13:30.371Z,51.47
2022-12-04T15:15:58.551Z,52.60
2022-12-04T15:18:25.604Z,48.33
2022-12-04T15:20:58.594Z,49.20
2022-12-04T15:23:38.949Z,56.93
2022-12-04T15:26:20.884Z,47.05
2022-12-04T15:29:01.879Z,50.50
2022-12-04T15:31:40.609Z,49.33
2022-12-04T15:34:14.844Z,48.92
2022-12-04T15:37:07.752Z,55.10
2022-12-04T15:39:37.912Z,50.95
2022-12-04T15:42:21.355Z,50.40
2022-12-04T15:45:25.565Z,48.15
2022-12-04T15:47:54.772Z,46.55
2022-12-04T15:50:28.767Z,48.73
2022-12-04T15:53:20.951Z,61.00
2022-12-04T15:55:55.375Z,86.32
2022-12-04T15:58:29.842Z,54.28
2022-12-04T16:01:09.511Z,58.05
2022-12-04T16:03:42.720Z,50.03
2022-12-04T16:06:31.754Z,59.47
2022-12-04T16:09:20.146Z,47.08
2022-12-04T16:11:56.397Z,52.72
2022-12-04T16:14:23.503Z,51.35
2022-12-04T16:16:53.308Z,49.43
2022-12-04T16:19:34.446Z,40.72
2022-12-04T16:22:04.377Z,46.88
2022-12-04T16:24:31.549Z,45.25
2022-12-04T16:27:00.907Z,51.00
2022-12-04T16:29:30.430Z,67.73
2022-12-04T16:32:02.883Z,49.47
2022-12-04T16:34:30.798Z,50.15
2022-12-04T16:36:58.572Z,45.05
2022-12-04T16:39:25.777Z,46.85
2022-12-04T16:41:52.898Z,48.77
2022-12-04T16:44:20.000Z,49.08
2022-12-04T16:46:47.115Z,48.72
2022-12-04T16:49:14.371Z,55.92
2022-12-04T16:51:49.404Z,47.78
2022-12-04T16:54:16.914Z,48.63
2022-12-04T16:56:44.013Z,50.50
2022-12-04T16:59:12.399Z,56.75
2022-12-04T17:01:47.990Z,48.88
2022-12-04T17:04:16.370Z,53.03
2022-12-04T17:06:44.378Z,49.63
2022-12-04T17:09:12.810Z,49.35
2022-12-04T17:11:40.637Z,53.95
2022-12-04T17:14:08.068Z,51.08
2022-12-04T17:16:42.964Z,47.72
2022-12-04T17:19:11.996Z,46.53
2022-12-04T17:21:40.334Z,49.97
2022-12-04T17:24:08.067Z,48.15
2022-12-04T17:26:35.126Z,48.88
2022-12-04T17:29:02.247Z,44.42
2022-12-04T17:31:29.734Z,43.30
2022-12-04T17:33:57.442Z,41.30
2022-12-04T17:36:27.477Z,47.05
2022-12-04T17:39:01.818Z,44.92
2022-12-04T17:41:29.577Z,43.00
2022-12-04T17:43:58.956Z,41.03
2022-12-04T17:46:26.188Z,43.97
2022-12-04T17:48:57.018Z,45.78
2022-12-04T17:51:25.880Z,43.10
2022-12-04T17:53:55.927Z,48.00
2022-12-04T17:56:24.575Z,37.93
2022-12-04T17:58:52.013Z,44.53
2022-12-04T18:01:23.878Z,41.88
2022-12-04T18:03:57.825Z,39.97
2022-12-04T18:06:27.420Z,40.92
2022-12-04T18:08:54.670Z,43.13
2022-12-04T18:11:25.732Z,39.85
2022-12-04T18:14:04.830Z,37.88
2022-12-04T18:16:38.311Z,43.38
2022-12-04T18:19:06.072Z,38.67
2022-12-04T18:21:34.470Z,39.87
2022-12-04T18:24:04.905Z,37.63
2022-12-04T18:26:41.752Z,42.22
2022-12-04T18:29:14.605Z,44.05
2022-12-04T18:31:41.995Z,46.42
2022-12-04T18:34:09.730Z,47.73
2022-12-04T18:36:39.516Z,50.30
2022-12-04T18:39:12.045Z,51.72
2022-12-04T18:41:39.077Z,50.97
2022-12-04T18:44:06.429Z,57.25
2022-12-04T18:46:33.654Z,60.83
2022-12-04T18:49:01.351Z,51.28
2022-12-04T18:51:39.538Z,53.03
2022-12-04T18:54:17.499Z,65.15
2022-12-04T18:56:45.015Z,56.15
2022-12-04T18:59:23.666Z,54.30
2022-12-04T19:01:51.854Z,56.10
2022-12-04T19:04:21.956Z,58.75
2022-12-04T19:06:53.531Z,58.97
2022-12-04T19:10:10.095Z,56.47
2022-12-04T19:12:14.133Z,56.73
2022-12-04T19:14:41.294Z,63.70
2022-12-04T19:17:08.983Z,63.33
2022-12-04T19:19:36.187Z,61.35
2022-12-04T19:22:04.564Z,59.67
2022-12-04T19:24:31.691Z,62.43
2022-12-04T19:26:58.788Z,61.67
2022-12-04T19:29:25.881Z,62.22
2022-12-04T19:31:58.850Z,58.90
2022-12-04T19:34:26.865Z,56.72
2022-12-04T19:36:57.015Z,60.97
2022-12-04T19:39:24.107Z,60.03
2022-12-04T19:41:52.667Z,58.30
2022-12-04T19:47:10.374Z,58.17
2022-12-04T19:49:37.436Z,59.17
2022-12-04T19:52:05.386Z,63.45
2022-12-04T19:54:32.450Z,65.45
2022-12-04T19:56:59.547Z,67.93
2022-12-04T19:59:29.451Z,70.82
2022-12-04T20:01:59.053Z,56.87
2022-12-04T20:04:26.238Z,65.75
2022-12-04T20:06:53.418Z,67.25
2022-12-04T20:09:22.312Z,58.72
2022-12-04T20:11:49.827Z,61.65
2022-12-04T20:14:17.846Z,61.90
2022-12-04T20:16:45.237Z,67.05
2022-12-04T20:19:18.262Z,65.63
2022-12-04T20:21:46.158Z,65.20
2022-12-04T20:24:16.720Z,65.88
2022-12-04T20:26:45.579Z,66.43
2022-12-04T20:29:15.978Z,60.20
2022-12-04T20:31:45.796Z,59.67
2022-12-04T20:34:16.792Z,67.45
2022-12-04T20:36:46.175Z,65.28
2022-12-04T20:39:15.303Z,64.10
2022-12-04T20:41:42.966Z,63.70
2022-12-04T20:44:17.370Z,58.72
2022-12-04T20:46:45.057Z,60.85
2022-12-04T20:49:21.753Z,64.55
2022-12-04T20:51:51.042Z,59.30
2022-12-04T20:54:21.118Z,68.22
2022-12-04T20:56:49.200Z,65.38
2022-12-04T20:59:18.568Z,62.33
2022-12-04T21:01:46.495Z,58.95
2022-12-04T21:04:13.641Z,62.23
2022-12-04T21:06:42.363Z,63.30
2022-12-04T21:09:20.406Z,62.70
2022-12-04T21:11:53.475Z,63.13
2022-12-04T21:14:43.512Z,62.50
2022-12-04T21:17:18.705Z,69.57
2022-12-04T21:19:49.092Z,61.90
2022-12-04T21:22:18.390Z,61.88
2022-12-04T21:24:45.475Z,60.42
2022-12-04T21:27:17.379Z,61.97
2022-12-04T21:29:48.466Z,64.30
2022-12-04T21:32:19.046Z,68.75
2022-12-04T21:34:46.109Z,62.47
2022-12-04T21:37:13.552Z,66.22
2022-12-04T21:39:41.869Z,64.18
2022-12-04T21:42:27.302Z,66.00
2022-12-04T21:44:54.389Z,61.60
2022-12-04T21:47:21.478Z,60.13
2022-12-04T21:49:48.639Z,68.97
2022-12-04T21:52:16.886Z,63.88
2022-12-04T21:54:44.155Z,65.97
2022-12-04T21:57:11.267Z,70.82
2022-12-04T21:59:38.363Z,63.17
2022-12-04T22:02:05.595Z,60.35
2022-12-04T22:04:32.786Z,64.38
2022-12-04T22:06:59.822Z,63.00
2022-12-04T22:09:26.913Z,63.65
2022-12-04T22:11:54.047Z,60.15
2022-12-04T22:14:21.178Z,63.90
2022-12-04T22:16:51.746Z,66.13
2022-12-04T22:19:19.225Z,64.27
2022-12-04T22:21:46.309Z,59.00
2022-12-04T22:24:14.358Z,64.80
2022-12-04T22:26:41.401Z,61.47
2022-12-04T22:29:41.530Z,66.63
2022-12-04T22:31:55.689Z,66.07
2022-12-04T22:34:22.873Z,60.90
2022-12-04T22:36:50.382Z,60.88
2022-12-04T22:39:17.439Z,67.03
2022-12-04T22:41:44.486Z,61.35
2022-12-04T22:44:11.531Z,63.27
2022-12-04T22:46:38.667Z,61.25
2022-12-04T22:49:05.840Z,60.42
2022-12-04T22:51:32.934Z,62.28
2022-12-04T22:54:00.050Z,64.15
2022-12-04T22:56:32.150Z,58.20
2022-12-04T22:59:00.425Z,64.80
2022-12-04T23:01:30.901Z,59.97
2022-12-04T23:03:59.356Z,61.53
2022-12-04T23:06:29.240Z,60.17
2022-12-04T23:09:02.298Z,55.97
2022-12-04T23:11:29.466Z,57.00
2022-12-04T23:14:00.578Z,59.88
2022-12-04T23:16:30.315Z,56.03
2022-12-04T23:18:58.583Z,53.38
2022-12-04T23:21:27.000Z,57.83
2022-12-04T23:23:55.694Z,53.90
2022-12-04T23:26:27.220Z,56.67
2022-12-04T23:28:55.869Z,56.17
2022-12-04T23:31:23.433Z,53.35
2022-12-04T23:33:50.867Z,52.90
2022-12-04T23:36:18.011Z,50.50
2022-12-04T23:38:45.851Z,54.60
2022-12-04T23:41:18.519Z,56.33
2022-12-04T23:43:47.488Z,52.95
2022-12-04T23:46:18.005Z,47.93
2022-12-04T23:48:46.185Z,48.08
2022-12-04T23:51:16.755Z,48.75
2022-12-04T23:53:44.815Z,48.00
2022-12-04T23:56:24.203Z,50.42
2022-12-04T23:58:54.010Z,49.47
